Jonni Ritscher — A8JT7 — position and weather

sailwx.info

Track history (hours):
 
Tides and Currents Weather Stations Pressure Air Temp Water Temp Dewpoint Dewpoint Depression Visibility Wind Speed Wind Dir Waves Ship Positions

Jonni Ritscher

Last reported at 2016-Apr-24 05:33 UTC. Time now 2016-Apr-29 10:08 UTC.
Position N 55°44' E 015°47'.

Length 178 m; draft 8 m.

Type: Cargo ship. MMSI: 636091136.

Date/timePositionNaut miles runAvg speedWind from/ knotsBaromVisibWave heightAir tempDewpointWater temp
2016-Apr-24 05:33N 55°44' E 015°47'1010.0
2016-Apr-24 04:33N 55°40' E 015°32'10 9.8
2016-Apr-24 03:33N 55°35' E 015°16'1010.2
2016-Apr-24 02:33N 55°30' E 015°01'1010.3
2016-Apr-24 01:33N 55°25' E 014°45'1010.3
2016-Apr-24 00:34N 55°18' E 014°32'1010.3
2016-Apr-23 23:34N 55°10' E 014°20'1010.4
2016-Apr-23 22:33N 55°02' E 014°08'1110.6
2016-Apr-23 21:33N 54°58' E 013°51'1010.5
2016-Apr-23 20:33N 54°55' E 013°34'1010.4
2016-Apr-23 19:34N 54°52' E 013°17'1410.6
2016-Apr-23 18:15N 54°47' E 012°54'710.6
2016-Apr-23 17:34N 54°45' E 012°42'1110.8
2016-Apr-23 16:32N 54°38' E 012°26'9 9.8
2016-Apr-23 15:34N 54°31' E 012°15'10 9.6
2016-Apr-23 14:33N 54°24' E 012°04'1111.0
2016-Apr-23 13:33N 54°25' E 011°45'1211.6
2016-Apr-23 12:34N 54°30' E 011°27'1111.3
2016-Apr-23 11:34N 54°35' E 011°10'1110.9
2016-Apr-23 10:33N 54°41' E 010°54'1211.5
2016-Apr-23 09:33N 54°53' E 010°53'1211.8
2016-Apr-23 08:33N 55°03' E 011°02'1211.9
2016-Apr-23 07:34N 55°15' E 011°05'8111.2
2016-Apr-23 00:20N 56°34' E 011°40'911.9
2016-Apr-22 23:34N 56°42' E 011°48'1110.9
2016-Apr-22 22:34N 56°52' E 011°47'1212.0
2016-Apr-22 21:34N 57°04' E 011°40'1212.0
2016-Apr-22 20:33N 57°15' E 011°32'1212.4
2016-Apr-22 19:34N 57°27' E 011°25'1212.3
2016-Apr-22 18:33N 57°36' E 011°08'1212.1
2016-Apr-22 17:34N 57°44' E 010°52'1312.3
2016-Apr-22 16:31N 57°46' E 010°28'14614.2
2016-Apr-22 06:14N 55°58' E 007°28'1015.2
2016-Apr-22 05:33N 55°48' E 007°24'1515.3
2016-Apr-22 04:33N 55°33' E 007°21'1615.9
2016-Apr-22 03:33N 55°18' E 007°25'1616.0
2016-Apr-22 02:34N 55°02' E 007°27'1616.1
2016-Apr-22 01:33N 54°45' E 007°28'1716.5
2016-Apr-22 00:33N 54°29' E 007°30'1616.2
2016-Apr-21 23:34N 54°13' E 007°31'1616.1
2016-Apr-21 22:33N 53°58' E 007°42'1414.5
2016-Apr-21 21:33N 53°51' E 008°03'1515.4
2016-Apr-21 20:33N 53°40' E 008°22'7 7.3
2016-Apr-21 19:33N 53°35' E 008°31'0 0.0
2016-Apr-21 18:32N 53°35' E 008°31'0 0.0
2016-Apr-21 17:31N 53°35' E 008°31'0 0.0
2016-Apr-21 16:28N 53°35' E 008°31'0 0.0
2016-Apr-21 15:33N 53°35' E 008°31'0 0.0
2016-Apr-21 14:33N 53°35' E 008°31'0 0.0
2016-Apr-21 13:33N 53°35' E 008°31'2 2.3
2016-Apr-21 12:33N 53°37' E 008°29'1413.5
2016-Apr-21 11:33N 53°46' E 008°11'1312.9
2016-Apr-21 10:33N 53°52' E 007°52'10 9.9
2016-Apr-21 09:34N 53°57' E 007°38'7 6.5
2016-Apr-21 08:33N 54°03' E 007°33'7 7.2
2016-Apr-21 07:33N 54°10' E 007°29'1312.9
2016-Apr-21 06:34N 54°23' E 007°29'1413.5
2016-Apr-21 05:34N 54°36' E 007°29'1414.0
2016-Apr-21 04:33N 54°50' E 007°28'1717.1
2016-Apr-21 03:34N 55°07' E 007°26'1716.9
2016-Apr-21 02:34N 55°24' E 007°24'1716.5
2016-Apr-21 01:33N 55°40' E 007°20'1716.9
2016-Apr-21 00:33N 55°57' E 007°28'12417.7
2016-Apr-20 17:33N 57°38' E 009°39'2020.0
2016-Apr-20 16:33N 57°45' E 010°14'1918.7
2016-Apr-20 15:33N 57°45' E 010°49'2019.8
2016-Apr-20 14:33N 57°33' E 011°18'2019.6
2016-Apr-20 13:34N 57°15' E 011°34'2120.7
2016-Apr-20 12:34N 56°56' E 011°47'1919.0
2016-Apr-20 11:34N 56°37' E 011°45'2020.5
2016-Apr-20 10:34N 56°19' E 011°26'6017.2
2016-Apr-20 07:05N 55°21' E 011°02'917.6
2016-Apr-20 06:34N 55°12' E 011°06'1717.1
2016-Apr-20 05:34N 54°56' E 010°56'1515.0
2016-Apr-20 04:34N 54°41' E 010°55'1818.0
2016-Apr-20 03:34N 54°33' E 011°23'1918.6
2016-Apr-20 02:34N 54°26' E 011°53'1716.7
2016-Apr-20 01:34N 54°36' E 012°17'2719.8
2016-Apr-20 00:10N 54°50' E 012°57'1720.1
2016-Apr-19 23:21N 54°56' E 013°23'1620.2
2016-Apr-19 22:34N 55°03' E 013°49'1919.3
2016-Apr-19 21:33N 55°14' E 014°17'2020.3
2016-Apr-19 20:33N 55°28' E 014°41'2020.2
2016-Apr-19 19:33N 55°39' E 015°12'2820.6
2016-Apr-19 18:11N 55°52' E 015°56'  
2016-Apr-16 22:18N 55°44' E 015°47'1115.1
2016-Apr-16 21:33N 55°39' E 015°30'1515.0
2016-Apr-16 20:33N 55°32' E 015°07'1515.0
2016-Apr-16 19:33N 55°25' E 014°43'1514.9
2016-Apr-16 18:33N 55°14' E 014°26'1514.9
2016-Apr-16 17:33N 55°03' E 014°08'1515.0
2016-Apr-16 16:33N 54°57' E 013°44'1515.2
2016-Apr-16 15:33N 54°52' E 013°19'1515.3
2016-Apr-16 14:33N 54°47' E 012°54'1514.9
2016-Apr-16 13:33N 54°40' E 012°31'1514.7
2016-Apr-16 12:33N 54°29' E 012°14'1413.9
2016-Apr-16 11:33N 54°25' E 011°52'1515.1
2016-Apr-16 10:33N 54°30' E 011°27'1514.7
2016-Apr-16 09:33N 54°37' E 011°05'1514.9
2016-Apr-16 08:33N 54°50' E 010°52'1616.3
2016-Apr-16 07:33N 55°05' E 011°02'1414.0
2016-Apr-16 06:33N 55°19' E 011°02'8013.4
2016-Apr-16 00:33N 56°36' E 011°42'1413.9
2016-Apr-15 23:33N 56°49' E 011°49'1514.6
2016-Apr-15 22:33N 57°03' E 011°40'1414.3
2016-Apr-15 21:33N 57°16' E 011°32'1413.8
2016-Apr-15 20:33N 57°29' E 011°23'1414.1
2016-Apr-15 19:33N 57°42' E 011°13'1414.4
2016-Apr-15 18:34N 57°56' E 011°03'1413.8
2016-Apr-15 17:33N 58°09' E 010°57'1414.3
2016-Apr-15 16:34N 58°23' E 010°51'1514.7
2016-Apr-15 15:34N 58°38' E 010°45'1413.7
2016-Apr-15 14:33N 58°51' E 010°40'1211.8
2016-Apr-15 13:33N 59°03' E 010°35'1413.7
2016-Apr-15 12:33N 59°16' E 010°36'1717.3
2016-Apr-15 11:33N 59°34' E 010°37'1414.5
2016-Apr-15 10:34N 59°48' E 010°34'8 1.2
2016-Apr-15 04:29N 59°53' E 010°45'9 9.5
2016-Apr-15 03:33N 59°46' E 010°34'1313.3
2016-Apr-15 02:33N 59°33' E 010°37'1918.7
2016-Apr-15 01:33N 59°14' E 010°38'1313.2
2016-Apr-15 00:33N 59°01' E 010°36'1110.9
2016-Apr-14 23:33N 58°50' E 010°40'1111.2
2016-Apr-14 22:33N 58°39' E 010°45'1111.4
2016-Apr-14 21:33N 58°28' E 010°49'1211.5
2016-Apr-14 20:33N 58°17' E 010°53'1312.7
2016-Apr-14 19:33N 58°04' E 010°58'1312.7
2016-Apr-14 18:33N 57°53' E 011°10'1212.4
2016-Apr-14 17:33N 57°43' E 011°23'1110.8
2016-Apr-14 16:33N 57°38' E 011°41'7 6.8
2016-Apr-14 15:32N 57°41' E 011°52'0 0.0
2016-Apr-14 14:32N 57°41' E 011°52'0 0.0
2016-Apr-14 13:31N 57°41' E 011°52'0 0.0
2016-Apr-14 12:31N 57°41' E 011°52'0 0.0
2016-Apr-14 11:31N 57°41' E 011°52'0 0.0
2016-Apr-14 10:33N 57°41' E 011°52'0 0.0
2016-Apr-14 09:33N 57°41' E 011°52'0 0.0
2016-Apr-14 08:32N 57°41' E 011°52'0 0.0
2016-Apr-14 07:32N 57°41' E 011°52'0 0.0
2016-Apr-14 06:31N 57°41' E 011°52'  
Track history (hours):
 
Tides and Currents Weather Stations Pressure Air Temp Water Temp Dewpoint Dewpoint Depression Visibility Wind Speed Wind Dir Waves Ship Positions

Jonni Ritscher

Last reported at 2016-Apr-24 05:33 UTC. Time now 2016-Apr-29 10:08 UTC.
Position N 55°44' E 015°47'.

Length 178 m; draft 8 m.

Type: Cargo ship. MMSI: 636091136.

Date/timePositionNaut miles runAvg speedWind from/ knotsBaromVisibWave heightAir tempDewpointWater temp
2016-Apr-24 05:33N 55°44' E 015°47'1010.0
2016-Apr-24 04:33N 55°40' E 015°32'10 9.8
2016-Apr-24 03:33N 55°35' E 015°16'1010.2
2016-Apr-24 02:33N 55°30' E 015°01'1010.3
2016-Apr-24 01:33N 55°25' E 014°45'1010.3
2016-Apr-24 00:34N 55°18' E 014°32'1010.3
2016-Apr-23 23:34N 55°10' E 014°20'1010.4
2016-Apr-23 22:33N 55°02' E 014°08'1110.6
2016-Apr-23 21:33N 54°58' E 013°51'1010.5
2016-Apr-23 20:33N 54°55' E 013°34'1010.4
2016-Apr-23 19:34N 54°52' E 013°17'1410.6
2016-Apr-23 18:15N 54°47' E 012°54'710.6
2016-Apr-23 17:34N 54°45' E 012°42'1110.8
2016-Apr-23 16:32N 54°38' E 012°26'9 9.8
2016-Apr-23 15:34N 54°31' E 012°15'10 9.6
2016-Apr-23 14:33N 54°24' E 012°04'1111.0
2016-Apr-23 13:33N 54°25' E 011°45'1211.6
2016-Apr-23 12:34N 54°30' E 011°27'1111.3
2016-Apr-23 11:34N 54°35' E 011°10'1110.9
2016-Apr-23 10:33N 54°41' E 010°54'1211.5
2016-Apr-23 09:33N 54°53' E 010°53'1211.8
2016-Apr-23 08:33N 55°03' E 011°02'1211.9
2016-Apr-23 07:34N 55°15' E 011°05'8111.2
2016-Apr-23 00:20N 56°34' E 011°40'911.9
2016-Apr-22 23:34N 56°42' E 011°48'1110.9
2016-Apr-22 22:34N 56°52' E 011°47'1212.0
2016-Apr-22 21:34N 57°04' E 011°40'1212.0
2016-Apr-22 20:33N 57°15' E 011°32'1212.4
2016-Apr-22 19:34N 57°27' E 011°25'1212.3
2016-Apr-22 18:33N 57°36' E 011°08'1212.1
2016-Apr-22 17:34N 57°44' E 010°52'1312.3
2016-Apr-22 16:31N 57°46' E 010°28'14614.2
2016-Apr-22 06:14N 55°58' E 007°28'1015.2
2016-Apr-22 05:33N 55°48' E 007°24'1515.3
2016-Apr-22 04:33N 55°33' E 007°21'1615.9
2016-Apr-22 03:33N 55°18' E 007°25'1616.0
2016-Apr-22 02:34N 55°02' E 007°27'1616.1
2016-Apr-22 01:33N 54°45' E 007°28'1716.5
2016-Apr-22 00:33N 54°29' E 007°30'1616.2
2016-Apr-21 23:34N 54°13' E 007°31'1616.1
2016-Apr-21 22:33N 53°58' E 007°42'1414.5
2016-Apr-21 21:33N 53°51' E 008°03'1515.4
2016-Apr-21 20:33N 53°40' E 008°22'7 7.3
2016-Apr-21 19:33N 53°35' E 008°31'0 0.0
2016-Apr-21 18:32N 53°35' E 008°31'0 0.0
2016-Apr-21 17:31N 53°35' E 008°31'0 0.0
2016-Apr-21 16:28N 53°35' E 008°31'0 0.0
2016-Apr-21 15:33N 53°35' E 008°31'0 0.0
2016-Apr-21 14:33N 53°35' E 008°31'0 0.0
2016-Apr-21 13:33N 53°35' E 008°31'2 2.3
2016-Apr-21 12:33N 53°37' E 008°29'1413.5
2016-Apr-21 11:33N 53°46' E 008°11'1312.9
2016-Apr-21 10:33N 53°52' E 007°52'10 9.9
2016-Apr-21 09:34N 53°57' E 007°38'7 6.5
2016-Apr-21 08:33N 54°03' E 007°33'7 7.2
2016-Apr-21 07:33N 54°10' E 007°29'1312.9
2016-Apr-21 06:34N 54°23' E 007°29'1413.5
2016-Apr-21 05:34N 54°36' E 007°29'1414.0
2016-Apr-21 04:33N 54°50' E 007°28'1717.1
2016-Apr-21 03:34N 55°07' E 007°26'1716.9
2016-Apr-21 02:34N 55°24' E 007°24'1716.5
2016-Apr-21 01:33N 55°40' E 007°20'1716.9
2016-Apr-21 00:33N 55°57' E 007°28'12417.7
2016-Apr-20 17:33N 57°38' E 009°39'2020.0
2016-Apr-20 16:33N 57°45' E 010°14'1918.7
2016-Apr-20 15:33N 57°45' E 010°49'2019.8
2016-Apr-20 14:33N 57°33' E 011°18'2019.6
2016-Apr-20 13:34N 57°15' E 011°34'2120.7
2016-Apr-20 12:34N 56°56' E 011°47'1919.0
2016-Apr-20 11:34N 56°37' E 011°45'2020.5
2016-Apr-20 10:34N 56°19' E 011°26'6017.2
2016-Apr-20 07:05N 55°21' E 011°02'917.6
2016-Apr-20 06:34N 55°12' E 011°06'1717.1
2016-Apr-20 05:34N 54°56' E 010°56'1515.0
2016-Apr-20 04:34N 54°41' E 010°55'1818.0
2016-Apr-20 03:34N 54°33' E 011°23'1918.6
2016-Apr-20 02:34N 54°26' E 011°53'1716.7
2016-Apr-20 01:34N 54°36' E 012°17'2719.8
2016-Apr-20 00:10N 54°50' E 012°57'1720.1
2016-Apr-19 23:21N 54°56' E 013°23'1620.2
2016-Apr-19 22:34N 55°03' E 013°49'1919.3
2016-Apr-19 21:33N 55°14' E 014°17'2020.3
2016-Apr-19 20:33N 55°28' E 014°41'2020.2
2016-Apr-19 19:33N 55°39' E 015°12'2820.6
2016-Apr-19 18:11N 55°52' E 015°56'  
2016-Apr-16 22:18N 55°44' E 015°47'1115.1
2016-Apr-16 21:33N 55°39' E 015°30'1515.0
2016-Apr-16 20:33N 55°32' E 015°07'1515.0
2016-Apr-16 19:33N 55°25' E 014°43'1514.9
2016-Apr-16 18:33N 55°14' E 014°26'1514.9
2016-Apr-16 17:33N 55°03' E 014°08'1515.0
2016-Apr-16 16:33N 54°57' E 013°44'1515.2
2016-Apr-16 15:33N 54°52' E 013°19'1515.3
2016-Apr-16 14:33N 54°47' E 012°54'1514.9
2016-Apr-16 13:33N 54°40' E 012°31'1514.7
2016-Apr-16 12:33N 54°29' E 012°14'1413.9
2016-Apr-16 11:33N 54°25' E 011°52'1515.1
2016-Apr-16 10:33N 54°30' E 011°27'1514.7
2016-Apr-16 09:33N 54°37' E 011°05'1514.9
2016-Apr-16 08:33N 54°50' E 010°52'1616.3
2016-Apr-16 07:33N 55°05' E 011°02'1414.0
2016-Apr-16 06:33N 55°19' E 011°02'8013.4
2016-Apr-16 00:33N 56°36' E 011°42'1413.9
2016-Apr-15 23:33N 56°49' E 011°49'1514.6
2016-Apr-15 22:33N 57°03' E 011°40'1414.3
2016-Apr-15 21:33N 57°16' E 011°32'1413.8
2016-Apr-15 20:33N 57°29' E 011°23'1414.1
2016-Apr-15 19:33N 57°42' E 011°13'1414.4
2016-Apr-15 18:34N 57°56' E 011°03'1413.8
2016-Apr-15 17:33N 58°09' E 010°57'1414.3
2016-Apr-15 16:34N 58°23' E 010°51'1514.7
2016-Apr-15 15:34N 58°38' E 010°45'1413.7
2016-Apr-15 14:33N 58°51' E 010°40'1211.8
2016-Apr-15 13:33N 59°03' E 010°35'1413.7
2016-Apr-15 12:33N 59°16' E 010°36'1717.3
2016-Apr-15 11:33N 59°34' E 010°37'1414.5
2016-Apr-15 10:34N 59°48' E 010°34'8 1.2
2016-Apr-15 04:29N 59°53' E 010°45'9 9.5
2016-Apr-15 03:33N 59°46' E 010°34'1313.3
2016-Apr-15 02:33N 59°33' E 010°37'1918.7
2016-Apr-15 01:33N 59°14' E 010°38'1313.2
2016-Apr-15 00:33N 59°01' E 010°36'1110.9
2016-Apr-14 23:33N 58°50' E 010°40'1111.2
2016-Apr-14 22:33N 58°39' E 010°45'1111.4
2016-Apr-14 21:33N 58°28' E 010°49'1211.5
2016-Apr-14 20:33N 58°17' E 010°53'1312.7
2016-Apr-14 19:33N 58°04' E 010°58'1312.7
2016-Apr-14 18:33N 57°53' E 011°10'1212.4
2016-Apr-14 17:33N 57°43' E 011°23'1110.8
2016-Apr-14 16:33N 57°38' E 011°41'7 6.8
2016-Apr-14 15:32N 57°41' E 011°52'0 0.0
2016-Apr-14 14:32N 57°41' E 011°52'0 0.0
2016-Apr-14 13:31N 57°41' E 011°52'0 0.0
2016-Apr-14 12:31N 57°41' E 011°52'0 0.0
2016-Apr-14 11:31N 57°41' E 011°52'0 0.0
2016-Apr-14 10:33N 57°41' E 011°52'0 0.0
2016-Apr-14 09:33N 57°41' E 011°52'0 0.0
2016-Apr-14 08:32N 57°41' E 011°52'0 0.0
2016-Apr-14 07:32N 57°41' E 011°52'0 0.0
2016-Apr-14 06:31N 57°41' E 011°52'  

Dump ship's entire track history